createdAt,value
2018-12-17T00:02:09.470Z,19.80
2018-12-17T00:04:36.187Z,19.87
2018-12-17T00:07:02.739Z,20.50
2018-12-17T00:09:29.066Z,21.40
2018-12-17T00:11:55.284Z,20.47
2018-12-17T00:14:21.599Z,19.83
2018-12-17T00:16:47.879Z,20.27
2018-12-17T00:19:14.195Z,20.60
2018-12-17T00:21:40.489Z,20.90
2018-12-17T00:24:06.666Z,21.90
2018-12-17T00:26:32.983Z,20.37
2018-12-17T00:28:59.265Z,19.63
2018-12-17T00:31:25.678Z,19.50
2018-12-17T00:33:51.892Z,18.63
2018-12-17T00:36:18.201Z,20.73
2018-12-17T00:38:44.533Z,20.27
2018-12-17T00:41:10.858Z,19.43
2018-12-17T00:43:37.321Z,20.47
2018-12-17T00:46:03.760Z,20.03
2018-12-17T00:48:30.369Z,18.57
2018-12-17T00:50:56.572Z,19.57
2018-12-17T00:53:22.863Z,20.60
2018-12-17T00:55:49.128Z,19.90
2018-12-17T00:58:15.500Z,20.97
2018-12-17T01:00:41.863Z,20.30
2018-12-17T01:03:08.171Z,20.33
2018-12-17T01:05:34.478Z,20.07
2018-12-17T01:08:00.836Z,20.63
2018-12-17T01:10:27.121Z,21.73
2018-12-17T01:12:53.433Z,21.10
2018-12-17T01:15:19.700Z,20.27
2018-12-17T01:17:46.029Z,20.57
2018-12-17T01:20:12.494Z,21.07
2018-12-17T01:22:38.800Z,22.27
2018-12-17T01:25:05.329Z,22.07
2018-12-17T01:27:31.636Z,20.10
2018-12-17T01:29:58.019Z,21.07
2018-12-17T01:32:24.290Z,20.90
2018-12-17T01:34:50.608Z,21.57
2018-12-17T01:37:16.886Z,20.80
2018-12-17T01:39:43.853Z,21.70
2018-12-17T01:42:10.039Z,22.27
2018-12-17T01:44:36.334Z,21.10
2018-12-17T01:47:02.839Z,23.27
2018-12-17T01:49:29.159Z,21.80
2018-12-17T01:51:55.418Z,22.30
2018-12-17T01:54:21.705Z,22.03
2018-12-17T01:56:47.990Z,22.03
2018-12-17T01:59:14.188Z,20.73
2018-12-17T02:01:40.486Z,20.67
2018-12-17T02:04:06.784Z,23.13
2018-12-17T02:06:32.972Z,21.00
2018-12-17T02:08:59.260Z,20.27
2018-12-17T02:11:25.645Z,22.20
2018-12-17T02:13:51.964Z,21.93
2018-12-17T02:16:18.282Z,22.50
2018-12-17T02:18:44.563Z,22.00
2018-12-17T02:21:10.883Z,22.40
2018-12-17T02:23:37.253Z,22.53
2018-12-17T02:26:03.793Z,21.70
2018-12-17T02:28:35.943Z,22.40
2018-12-17T02:30:58.417Z,22.70
2018-12-17T02:33:24.709Z,22.70
2018-12-17T02:35:50.988Z,23.10
2018-12-17T02:38:17.205Z,21.80
2018-12-17T02:40:43.476Z,23.13
2018-12-17T02:43:09.750Z,23.83
2018-12-17T02:45:36.058Z,23.73
2018-12-17T02:48:02.333Z,23.60
2018-12-17T02:50:28.644Z,23.37
2018-12-17T02:52:54.926Z,23.00
2018-12-17T02:55:21.217Z,24.07
2018-12-17T02:57:47.494Z,23.03
2018-12-17T03:00:13.906Z,23.57
2018-12-17T03:02:40.187Z,22.77
2018-12-17T03:05:06.863Z,23.27
2018-12-17T03:07:33.167Z,24.07
2018-12-17T03:09:59.486Z,23.30
2018-12-17T03:12:25.768Z,23.70
2018-12-17T03:14:52.048Z,24.77
2018-12-17T03:17:18.409Z,23.10
2018-12-17T03:19:44.688Z,23.60
2018-12-17T03:22:11.021Z,24.70
2018-12-17T03:24:37.290Z,24.70
2018-12-17T03:27:03.836Z,23.47
2018-12-17T03:29:30.179Z,24.20
2018-12-17T03:31:56.367Z,23.20
2018-12-17T03:34:22.670Z,25.50
2018-12-17T03:36:49.004Z,24.53
2018-12-17T03:39:15.265Z,25.77
2018-12-17T03:41:41.526Z,23.97
2018-12-17T03:44:07.825Z,24.17
2018-12-17T03:46:34.218Z,26.20
2018-12-17T03:49:00.500Z,25.60
2018-12-17T03:51:26.758Z,25.07
2018-12-17T03:53:53.082Z,24.00
2018-12-17T03:56:19.362Z,24.97
2018-12-17T03:58:45.615Z,25.03
2018-12-17T04:01:11.967Z,25.57
2018-12-17T04:03:38.264Z,24.13
2018-12-17T04:06:04.533Z,27.90
2018-12-17T04:08:30.943Z,27.67
2018-12-17T04:10:57.268Z,25.10
2018-12-17T04:13:23.551Z,26.07
2018-12-17T04:15:49.874Z,27.10
2018-12-17T04:18:16.156Z,26.10
2018-12-17T04:20:42.465Z,27.10
2018-12-17T04:23:08.790Z,26.43
2018-12-17T04:25:35.251Z,26.30
2018-12-17T04:28:01.592Z,24.97
2018-12-17T04:30:27.861Z,26.90
2018-12-17T04:32:54.227Z,27.63
2018-12-17T04:35:20.546Z,25.70
2018-12-17T04:37:46.752Z,27.63
2018-12-17T04:40:13.089Z,27.10
2018-12-17T04:42:39.396Z,28.63
2018-12-17T04:45:05.782Z,27.50
2018-12-17T04:47:32.148Z,27.60
2018-12-17T04:49:58.436Z,26.87
2018-12-17T04:52:24.795Z,26.30
2018-12-17T04:54:51.119Z,27.80
2018-12-17T04:57:17.447Z,26.43
2018-12-17T04:59:43.755Z,28.10
2018-12-17T05:02:10.067Z,27.10
2018-12-17T05:04:36.425Z,26.37
2018-12-17T05:07:02.925Z,27.87
2018-12-17T05:09:29.241Z,26.13
2018-12-17T05:11:55.510Z,25.70
2018-12-17T05:14:21.900Z,26.87
2018-12-17T05:16:48.234Z,28.20
2018-12-17T05:19:14.498Z,28.57
2018-12-17T05:21:40.891Z,28.50
2018-12-17T05:24:07.222Z,26.23
2018-12-17T05:26:33.508Z,31.13
2018-12-17T05:28:59.840Z,28.83
2018-12-17T05:31:26.155Z,27.37
2018-12-17T05:33:52.483Z,28.90
2018-12-17T05:36:18.763Z,28.20
2018-12-17T05:38:45.086Z,28.93
2018-12-17T05:41:11.392Z,28.93
2018-12-17T05:43:38.578Z,27.60
2018-12-17T05:46:05.118Z,28.40
2018-12-17T05:48:31.338Z,29.50
2018-12-17T05:50:57.616Z,27.30
2018-12-17T05:53:23.928Z,27.70
2018-12-17T05:55:50.195Z,30.70
2018-12-17T05:58:16.438Z,28.97
2018-12-17T06:00:42.719Z,27.93
2018-12-17T06:03:09.091Z,28.87
2018-12-17T06:05:35.370Z,28.60
2018-12-17T06:08:03.645Z,30.20
2018-12-17T06:10:29.926Z,31.37
2018-12-17T06:12:56.367Z,32.23
2018-12-17T06:15:22.638Z,29.33
2018-12-17T06:17:49.914Z,29.30
2018-12-17T06:20:17.991Z,29.30
2018-12-17T06:22:44.299Z,29.43
2018-12-17T06:25:10.773Z,31.10
2018-12-17T06:27:38.585Z,30.90
2018-12-17T06:30:05.220Z,29.30
2018-12-17T06:32:31.433Z,31.00
2018-12-17T06:34:57.752Z,30.70
2018-12-17T06:37:23.966Z,31.10
2018-12-17T06:39:50.234Z,32.70
2018-12-17T06:42:16.525Z,30.10
2018-12-17T06:44:42.807Z,28.80
2018-12-17T06:47:09.137Z,33.37
2018-12-17T06:49:35.466Z,31.20
2018-12-17T06:52:02.119Z,31.57
2018-12-17T06:54:28.641Z,30.13
2018-12-17T06:56:54.963Z,30.67
2018-12-17T06:59:21.332Z,32.10
2018-12-17T07:01:48.147Z,32.07
2018-12-17T07:04:14.501Z,30.37
2018-12-17T07:06:40.779Z,31.40
2018-12-17T07:09:07.058Z,32.27
2018-12-17T07:11:33.335Z,31.60
2018-12-17T07:14:00.207Z,31.10
2018-12-17T07:16:26.579Z,30.50
2018-12-17T07:18:52.892Z,31.90
2018-12-17T07:21:19.202Z,31.87
2018-12-17T07:23:45.531Z,33.37
2018-12-17T07:26:11.862Z,32.37
2018-12-17T07:28:38.167Z,34.23
2018-12-17T07:31:04.497Z,33.40
2018-12-17T07:33:30.795Z,36.00
2018-12-17T07:35:57.104Z,33.90
2018-12-17T07:38:23.493Z,31.60
2018-12-17T07:40:49.818Z,32.80
2018-12-17T07:43:16.165Z,33.90
2018-12-17T07:45:42.427Z,34.37
2018-12-17T07:48:08.795Z,32.50
2018-12-17T07:50:35.156Z,33.67
2018-12-17T07:53:01.470Z,35.37
2018-12-17T07:55:27.772Z,31.80
2018-12-17T07:57:54.042Z,33.10
2018-12-17T08:00:20.362Z,31.67
2018-12-17T08:02:46.589Z,32.83
2018-12-17T08:05:12.765Z,33.33
2018-12-17T08:07:39.216Z,34.80
2018-12-17T08:10:05.764Z,32.60
2018-12-17T08:12:32.042Z,34.40
2018-12-17T08:14:58.272Z,33.60
2018-12-17T08:17:24.627Z,34.30
2018-12-17T08:19:51.034Z,34.77
2018-12-17T08:22:17.469Z,35.40
2018-12-17T08:24:43.788Z,34.23
2018-12-17T08:27:10.047Z,35.03
2018-12-17T08:29:36.379Z,38.10
2018-12-17T08:32:02.769Z,33.87
2018-12-17T08:34:29.090Z,36.10
2018-12-17T08:36:55.421Z,35.80
2018-12-17T08:39:21.750Z,35.47
2018-12-17T08:41:48.016Z,35.97
2018-12-17T08:44:14.342Z,35.90
2018-12-17T08:46:40.612Z,36.07
2018-12-17T08:49:06.942Z,36.70
2018-12-17T08:51:33.295Z,36.50
2018-12-17T08:53:59.662Z,34.23
2018-12-17T08:56:25.946Z,35.93
2018-12-17T08:58:52.245Z,38.57
2018-12-17T09:01:18.579Z,35.13
2018-12-17T09:03:44.989Z,36.27
2018-12-17T09:06:11.320Z,34.27
2018-12-17T09:08:37.654Z,35.63
2018-12-17T09:11:04.030Z,36.03
2018-12-17T09:13:30.364Z,34.10
2018-12-17T09:15:56.586Z,34.60
2018-12-17T09:18:22.915Z,34.70
2018-12-17T09:20:49.227Z,35.10
2018-12-17T09:23:15.603Z,36.50
2018-12-17T09:25:41.815Z,37.07
2018-12-17T09:28:08.200Z,37.67
2018-12-17T09:30:41.145Z,35.90
2018-12-17T09:33:03.054Z,37.13
2018-12-17T09:35:29.487Z,34.33
2018-12-17T09:37:55.672Z,37.50
2018-12-17T09:40:22.027Z,35.70
2018-12-17T09:42:48.503Z,36.40
2018-12-17T09:45:14.733Z,36.40
2018-12-17T09:47:40.959Z,34.87
2018-12-17T09:50:07.473Z,35.43
2018-12-17T09:52:33.778Z,36.57
2018-12-17T09:55:00.104Z,36.93
2018-12-17T09:57:26.360Z,36.70
2018-12-17T09:59:52.794Z,35.80
2018-12-17T10:02:19.079Z,35.67
2018-12-17T10:04:45.381Z,40.97
2018-12-17T10:07:11.705Z,35.87
2018-12-17T10:09:37.985Z,35.20
2018-12-17T10:12:04.333Z,37.63
2018-12-17T10:14:30.711Z,35.70
2018-12-17T10:16:56.893Z,36.70
2018-12-17T10:19:23.205Z,36.97
2018-12-17T10:21:49.543Z,33.90
2018-12-17T10:24:16.284Z,37.50
2018-12-17T10:26:42.553Z,36.43
2018-12-17T10:29:08.883Z,34.80
2018-12-17T10:31:35.150Z,35.03
2018-12-17T10:34:01.462Z,33.90
2018-12-17T10:36:27.727Z,34.60
2018-12-17T10:38:54.103Z,33.90
2018-12-17T10:41:20.388Z,35.90
2018-12-17T10:43:46.662Z,35.57
2018-12-17T10:46:13.226Z,35.10
2018-12-17T10:48:39.511Z,35.03
2018-12-17T10:51:05.838Z,36.40
2018-12-17T10:53:32.143Z,33.80
2018-12-17T10:55:58.372Z,35.67
2018-12-17T10:58:24.779Z,35.30
2018-12-17T11:00:57.464Z,33.10
2018-12-17T11:03:26.484Z,33.67
2018-12-17T11:05:54.121Z,35.90
2018-12-17T11:08:20.393Z,37.20
2018-12-17T11:10:46.695Z,35.57
2018-12-17T11:13:12.920Z,35.83
2018-12-17T11:15:39.260Z,35.13
2018-12-17T11:18:05.547Z,34.87
2018-12-17T11:20:31.995Z,33.03
2018-12-17T11:22:58.272Z,32.57
2018-12-17T11:25:24.587Z,33.60
2018-12-17T11:27:50.766Z,34.27
2018-12-17T11:30:16.983Z,36.00
2018-12-17T11:32:43.164Z,35.03
2018-12-17T11:35:09.388Z,35.20
2018-12-17T11:37:35.700Z,35.07
2018-12-17T11:40:02.297Z,34.97
2018-12-17T11:42:28.616Z,34.47
2018-12-17T11:44:54.897Z,33.70
2018-12-17T11:47:21.261Z,36.53
2018-12-17T11:49:47.579Z,33.90
2018-12-17T11:52:13.907Z,32.63
2018-12-17T11:54:40.187Z,34.87
2018-12-17T11:57:17.528Z,34.83
2018-12-17T11:59:43.838Z,33.23
2018-12-17T12:02:10.256Z,36.17
2018-12-17T12:04:36.521Z,33.30
2018-12-17T12:07:02.917Z,33.50
2018-12-17T12:09:31.211Z,35.73
2018-12-17T12:11:57.518Z,33.97
2018-12-17T12:14:23.835Z,34.20
2018-12-17T12:16:50.014Z,34.43
2018-12-17T12:19:16.346Z,38.67
2018-12-17T12:21:42.623Z,35.80
2018-12-17T12:24:08.937Z,37.30
2018-12-17T12:26:35.406Z,36.20
2018-12-17T12:29:02.739Z,36.83
2018-12-17T12:31:28.905Z,38.77
2018-12-17T12:33:55.225Z,37.90
2018-12-17T12:36:21.481Z,36.87
2018-12-17T12:38:47.895Z,37.23
2018-12-17T12:41:14.170Z,39.60
2018-12-17T12:43:40.478Z,38.43
2018-12-17T12:46:07.294Z,37.47
2018-12-17T12:48:33.782Z,36.83
2018-12-17T12:51:00.078Z,37.47
2018-12-17T12:53:26.307Z,39.97
2018-12-17T12:55:52.575Z,38.83
2018-12-17T12:58:18.789Z,37.00
2018-12-17T13:00:45.076Z,37.03
2018-12-17T13:03:11.352Z,34.80
2018-12-17T13:05:37.783Z,35.53
2018-12-17T13:08:04.187Z,35.90
2018-12-17T13:10:30.405Z,34.77
2018-12-17T13:12:56.575Z,35.77
2018-12-17T13:15:22.891Z,36.00
2018-12-17T13:17:49.154Z,35.73
2018-12-17T13:20:15.575Z,37.57
2018-12-17T13:22:41.761Z,36.63
2018-12-17T13:25:10.214Z,35.60
2018-12-17T13:27:36.500Z,38.47
2018-12-17T13:30:04.645Z,37.27
2018-12-17T13:32:30.824Z,36.50
2018-12-17T13:34:57.141Z,37.90
2018-12-17T13:37:23.330Z,34.17
2018-12-17T13:39:49.534Z,38.07
2018-12-17T13:42:15.966Z,33.97
2018-12-17T13:44:42.298Z,36.33
2018-12-17T13:47:08.715Z,39.00
2018-12-17T13:49:35.012Z,35.30
2018-12-17T13:52:07.560Z,35.97
2018-12-17T13:54:33.872Z,33.77
2018-12-17T13:57:00.256Z,37.73
2018-12-17T13:59:26.681Z,37.90
2018-12-17T14:01:52.962Z,34.43
2018-12-17T14:04:19.281Z,35.83
2018-12-17T14:06:45.777Z,36.50
2018-12-17T14:09:12.094Z,35.77
2018-12-17T14:11:38.374Z,36.80
2018-12-17T14:14:04.790Z,37.63
2018-12-17T14:16:37.090Z,37.73
2018-12-17T14:19:09.461Z,39.27
2018-12-17T14:24:36.297Z,38.20
2018-12-17T14:27:02.743Z,38.00
2018-12-17T14:29:29.015Z,40.10
2018-12-17T14:31:55.342Z,35.97
2018-12-17T14:34:21.734Z,38.03
2018-12-17T14:36:48.022Z,39.27
2018-12-17T14:39:14.467Z,36.40
2018-12-17T14:41:40.751Z,37.30
2018-12-17T14:47:04.832Z,35.53
2018-12-17T14:49:31.142Z,35.90
2018-12-17T14:51:57.429Z,38.40
2018-12-17T14:54:23.791Z,38.60
2018-12-17T14:56:50.190Z,35.53
2018-12-17T14:59:16.463Z,35.30
2018-12-17T15:01:42.784Z,37.70
2018-12-17T15:04:09.058Z,35.27
2018-12-17T15:06:35.386Z,34.20
2018-12-17T15:09:01.698Z,38.10
2018-12-17T15:11:27.929Z,34.90
2018-12-17T15:13:54.227Z,35.40
2018-12-17T15:16:20.526Z,38.47
2018-12-17T15:18:46.889Z,36.53
2018-12-17T15:21:13.206Z,40.23
2018-12-17T15:23:39.566Z,34.63
2018-12-17T15:26:05.862Z,37.00
2018-12-17T15:28:32.179Z,37.40
2018-12-17T15:30:58.622Z,37.10
2018-12-17T15:33:24.894Z,38.40
2018-12-17T15:35:51.201Z,37.47
2018-12-17T15:38:17.682Z,39.27
2018-12-17T15:40:44.041Z,37.30
2018-12-17T15:43:10.372Z,36.40
2018-12-17T15:45:36.598Z,37.50
2018-12-17T15:48:03.048Z,37.80
2018-12-17T15:50:29.360Z,38.90
2018-12-17T15:52:55.770Z,37.40
2018-12-17T15:55:22.052Z,37.83
2018-12-17T15:57:48.371Z,39.33
2018-12-17T16:00:14.636Z,40.03
2018-12-17T16:02:40.970Z,39.30
2018-12-17T16:05:07.370Z,39.23
2018-12-17T16:07:33.653Z,37.97
2018-12-17T16:09:59.982Z,38.70
2018-12-17T16:12:26.311Z,41.20
2018-12-17T16:14:52.595Z,38.87
2018-12-17T16:17:18.926Z,38.73
2018-12-17T16:19:45.253Z,39.73
2018-12-17T16:22:11.605Z,36.20
2018-12-17T16:24:37.867Z,40.20
2018-12-17T16:27:04.465Z,39.57
2018-12-17T16:29:30.738Z,37.27
2018-12-17T16:31:57.556Z,41.67
2018-12-17T16:34:24.335Z,39.17
2018-12-17T16:36:51.138Z,38.40
2018-12-17T16:39:17.453Z,41.17
2018-12-17T16:41:43.767Z,37.10
2018-12-17T16:44:10.056Z,37.30
2018-12-17T16:46:36.275Z,39.40
2018-12-17T16:49:02.860Z,39.90
2018-12-17T16:51:29.197Z,38.60
2018-12-17T16:53:55.476Z,37.00
2018-12-17T16:56:21.788Z,39.80
2018-12-17T16:58:48.269Z,37.00
2018-12-17T17:01:14.586Z,36.57
2018-12-17T17:03:40.895Z,36.53
2018-12-17T17:06:07.283Z,35.33
2018-12-17T17:08:33.626Z,36.97
2018-12-17T17:10:59.963Z,39.10
2018-12-17T17:13:26.289Z,37.10
2018-12-17T17:15:52.638Z,35.00
2018-12-17T17:18:18.917Z,38.40
2018-12-17T17:20:45.232Z,36.87
2018-12-17T17:23:11.519Z,37.60
2018-12-17T17:25:37.896Z,36.30
2018-12-17T17:28:04.250Z,37.43
2018-12-17T17:30:30.586Z,36.10
2018-12-17T17:32:56.757Z,35.63
2018-12-17T17:35:23.039Z,37.50
2018-12-17T17:37:49.448Z,38.00
2018-12-17T17:40:15.857Z,36.43
2018-12-17T17:42:42.289Z,36.23
2018-12-17T17:45:08.680Z,36.33
2018-12-17T17:47:34.999Z,38.00
2018-12-17T17:50:01.405Z,34.63
2018-12-17T17:52:27.633Z,36.03
2018-12-17T17:54:53.891Z,35.97
2018-12-17T17:57:20.246Z,35.63
2018-12-17T17:59:46.490Z,37.07
2018-12-17T18:02:18.755Z,36.90
2018-12-17T18:04:41.154Z,35.57
2018-12-17T18:07:07.486Z,35.80
2018-12-17T18:09:33.793Z,37.50
2018-12-17T18:12:00.589Z,35.60
2018-12-17T18:14:26.928Z,36.23
2018-12-17T18:16:53.243Z,37.60
2018-12-17T18:19:19.878Z,36.30
2018-12-17T18:21:46.161Z,37.47
2018-12-17T18:24:12.491Z,37.77
2018-12-17T18:26:38.770Z,41.23
2018-12-17T18:29:05.505Z,37.57
2018-12-17T18:31:31.805Z,36.50
2018-12-17T18:33:58.082Z,37.03
2018-12-17T18:36:24.437Z,36.27
2018-12-17T18:38:50.830Z,40.20
2018-12-17T18:41:17.142Z,36.80
2018-12-17T18:43:43.419Z,37.87
2018-12-17T18:46:09.753Z,37.63
2018-12-17T18:48:36.071Z,36.53
2018-12-17T18:51:02.369Z,35.97
2018-12-17T18:53:28.694Z,35.83
2018-12-17T18:55:54.976Z,36.43
2018-12-17T18:58:21.308Z,37.50
2018-12-17T19:00:47.602Z,45.63
2018-12-17T19:03:13.830Z,39.73
2018-12-17T19:05:40.151Z,36.87
2018-12-17T19:08:06.331Z,37.87
2018-12-17T19:13:29.453Z,39.67
2018-12-17T19:15:55.721Z,37.27
2018-12-17T19:18:22.065Z,38.20
2018-12-17T19:20:48.355Z,36.73
2018-12-17T19:23:14.712Z,37.50
2018-12-17T19:25:41.047Z,40.10
2018-12-17T19:28:07.362Z,38.40
2018-12-17T19:30:33.627Z,38.70
2018-12-17T19:32:59.957Z,38.83
2018-12-17T19:35:26.349Z,38.70
2018-12-17T19:37:52.783Z,38.83
2018-12-17T19:40:19.134Z,40.60
2018-12-17T19:42:45.450Z,38.43
2018-12-17T19:45:11.882Z,39.90
2018-12-17T19:47:38.179Z,41.13
2018-12-17T19:50:05.683Z,37.47
2018-12-17T19:52:32.014Z,38.63
2018-12-17T19:54:58.341Z,39.10
2018-12-17T19:57:24.627Z,39.67
2018-12-17T19:59:50.845Z,41.23
2018-12-17T20:02:17.134Z,41.20
2018-12-17T20:04:43.413Z,39.10
2018-12-17T20:07:09.741Z,41.97
2018-12-17T20:09:36.033Z,41.10
2018-12-17T20:12:02.463Z,42.07
2018-12-17T20:14:28.837Z,38.73
2018-12-17T20:16:55.167Z,39.87
2018-12-17T20:19:21.502Z,39.40
2018-12-17T20:21:47.739Z,40.63
2018-12-17T20:24:14.032Z,38.43
2018-12-17T20:26:40.239Z,39.70
2018-12-17T20:29:06.472Z,38.33
2018-12-17T20:31:32.877Z,39.20
2018-12-17T20:33:59.200Z,38.87
2018-12-17T20:36:25.479Z,38.90
2018-12-17T20:38:51.886Z,39.37
2018-12-17T20:41:18.228Z,37.30
2018-12-17T20:43:45.185Z,37.97
2018-12-17T20:46:11.646Z,38.90
2018-12-17T20:48:37.969Z,38.97
2018-12-17T20:51:04.265Z,37.20
2018-12-17T20:53:30.587Z,36.63
2018-12-17T20:55:56.770Z,39.00
2018-12-17T20:58:23.023Z,38.43
2018-12-17T21:00:49.426Z,39.03
2018-12-17T21:03:15.759Z,38.40
2018-12-17T21:05:42.036Z,38.20
2018-12-17T21:08:08.370Z,38.43
2018-12-17T21:10:34.774Z,38.67
2018-12-17T21:13:04.164Z,37.93
2018-12-17T21:15:30.418Z,37.80
2018-12-17T21:17:56.711Z,38.70
2018-12-17T21:20:22.941Z,37.07
2018-12-17T21:22:49.445Z,37.53
2018-12-17T21:25:16.066Z,40.57
2018-12-17T21:27:42.932Z,38.30
2018-12-17T21:30:09.421Z,36.90
2018-12-17T21:32:35.739Z,37.80
2018-12-17T21:35:02.146Z,39.17
2018-12-17T21:37:28.439Z,38.60
2018-12-17T21:39:54.869Z,39.93
2018-12-17T21:42:21.289Z,47.50
2018-12-17T21:44:47.554Z,41.40
2018-12-17T21:47:14.065Z,41.43
2018-12-17T21:49:40.458Z,37.77
2018-12-17T21:52:06.634Z,37.83
2018-12-17T21:54:32.870Z,39.47
2018-12-17T21:56:59.288Z,34.83
2018-12-17T21:59:25.631Z,37.90
2018-12-17T22:01:52.026Z,38.03
2018-12-17T22:04:19.771Z,38.50
2018-12-17T22:06:46.366Z,37.67
2018-12-17T22:09:12.638Z,36.80
2018-12-17T22:11:38.959Z,35.73
2018-12-17T22:14:05.302Z,38.33
2018-12-17T22:16:31.612Z,38.70
2018-12-17T22:18:57.844Z,38.37
2018-12-17T22:21:24.178Z,39.20
2018-12-17T22:23:50.454Z,36.67
2018-12-17T22:26:16.629Z,37.17
2018-12-17T22:28:42.834Z,37.07
2018-12-17T22:31:09.106Z,36.93
2018-12-17T22:33:35.418Z,34.70
2018-12-17T22:36:01.895Z,35.60
2018-12-17T22:38:28.181Z,38.07
2018-12-17T22:40:54.523Z,36.40
2018-12-17T22:43:20.821Z,36.77
2018-12-17T22:45:47.211Z,36.90
2018-12-17T22:48:13.502Z,37.00
2018-12-17T22:50:39.782Z,36.20
2018-12-17T22:53:05.993Z,36.47
2018-12-17T22:55:32.370Z,36.50
2018-12-17T22:57:58.674Z,36.93
2018-12-17T23:00:25.085Z,38.17
2018-12-17T23:02:51.414Z,37.53
2018-12-17T23:05:17.686Z,37.67
2018-12-17T23:07:43.981Z,35.93
2018-12-17T23:10:23.061Z,39.47
2018-12-17T23:13:01.998Z,37.57
2018-12-17T23:15:40.643Z,37.03
2018-12-17T23:18:06.702Z,35.47
2018-12-17T23:20:33.083Z,35.77
2018-12-17T23:22:59.581Z,34.57
2018-12-17T23:25:25.862Z,34.30
2018-12-17T23:27:52.170Z,35.40
2018-12-17T23:30:20.397Z,34.87
2018-12-17T23:32:46.700Z,36.80
2018-12-17T23:35:13.107Z,35.47
2018-12-17T23:37:39.947Z,35.07
2018-12-17T23:40:06.461Z,35.10
2018-12-17T23:42:32.783Z,34.50
2018-12-17T23:44:59.079Z,37.03
2018-12-17T23:47:25.406Z,36.20
2018-12-17T23:49:51.686Z,36.10
2018-12-17T23:52:17.883Z,36.23
2018-12-17T23:54:44.166Z,33.30
2018-12-17T23:57:10.582Z,34.27
2018-12-17T23:59:36.746Z,35.67
